createdAt,value
2022-07-30T00:00:24.660Z,92.00
2022-07-30T00:01:09.067Z,91.85
2022-07-30T00:01:58.045Z,91.54
2022-07-30T00:02:48.034Z,91.85
2022-07-30T00:03:38.058Z,91.94
2022-07-30T00:04:28.023Z,91.74
2022-07-30T00:05:18.010Z,91.24
2022-07-30T00:06:07.989Z,91.34
2022-07-30T00:06:58.247Z,91.44
2022-07-30T00:07:47.985Z,91.34
2022-07-30T00:08:37.966Z,90.83
2022-07-30T00:09:27.956Z,91.74
2022-07-30T00:10:17.946Z,91.54
2022-07-30T00:11:07.937Z,92.14
2022-07-30T00:11:57.945Z,91.68
2022-07-30T00:12:47.916Z,91.38
2022-07-30T00:13:37.927Z,91.78
2022-07-30T00:14:27.896Z,92.29
2022-07-30T00:15:17.896Z,92.90
2022-07-30T00:16:07.877Z,93.00
2022-07-30T00:16:58.373Z,92.90
2022-07-30T00:17:49.107Z,92.54
2022-07-30T00:18:37.861Z,92.54
2022-07-30T00:19:27.866Z,93.15
2022-07-30T00:20:18.523Z,92.94
2022-07-30T00:21:07.835Z,92.84
2022-07-30T00:21:57.815Z,92.94
2022-07-30T00:22:47.804Z,93.25
2022-07-30T00:23:37.795Z,93.55
2022-07-30T00:24:27.786Z,94.26
2022-07-30T00:25:17.795Z,93.96
2022-07-30T00:26:07.765Z,93.86
2022-07-30T00:26:57.879Z,94.10
2022-07-30T00:27:47.746Z,94.41
2022-07-30T00:28:37.745Z,94.41
2022-07-30T00:29:27.812Z,94.71
2022-07-30T00:30:17.726Z,94.92
2022-07-30T00:31:07.813Z,95.02
2022-07-30T00:31:57.721Z,95.02
2022-07-30T00:32:47.694Z,94.92
2022-07-30T00:33:37.686Z,94.92
2022-07-30T00:34:27.675Z,95.02
2022-07-30T00:35:17.704Z,94.92
2022-07-30T00:36:07.654Z,94.82
2022-07-30T00:36:58.165Z,94.71
2022-07-30T00:37:47.641Z,94.51
2022-07-30T00:38:37.635Z,94.61
2022-07-30T00:39:27.634Z,94.71
2022-07-30T00:40:17.604Z,94.71
2022-07-30T00:41:07.603Z,94.71
2022-07-30T00:41:57.586Z,94.51
2022-07-30T00:42:47.589Z,94.31
2022-07-30T00:43:37.593Z,94.51
2022-07-30T00:44:27.564Z,94.21
2022-07-30T00:45:17.558Z,94.00
2022-07-30T00:46:07.564Z,94.61
2022-07-30T00:46:57.717Z,94.41
2022-07-30T00:47:47.531Z,94.92
2022-07-30T00:48:37.516Z,95.02
2022-07-30T00:49:27.529Z,94.71
2022-07-30T00:50:17.493Z,95.02
2022-07-30T00:51:07.494Z,95.32
2022-07-30T00:51:57.475Z,95.02
2022-07-30T00:52:47.496Z,94.82
2022-07-30T00:53:37.454Z,94.82
2022-07-30T00:54:27.452Z,94.82
2022-07-30T00:55:17.434Z,95.22
2022-07-30T00:56:07.434Z,94.92
2022-07-30T00:56:57.510Z,94.92
2022-07-30T00:57:47.417Z,94.71
2022-07-30T00:58:37.413Z,94.71
2022-07-30T00:59:27.400Z,95.42
2022-07-30T01:00:17.402Z,95.53
2022-07-30T01:01:07.447Z,95.63
2022-07-30T01:01:57.389Z,95.42
2022-07-30T01:02:47.373Z,95.32
2022-07-30T01:03:37.342Z,95.42
2022-07-30T01:04:27.341Z,95.37
2022-07-30T01:05:17.322Z,95.78
2022-07-30T01:06:07.369Z,95.87
2022-07-30T01:06:58.612Z,95.67
2022-07-30T01:07:47.333Z,95.87
2022-07-30T01:08:37.290Z,95.87
2022-07-30T01:09:27.282Z,95.78
2022-07-30T01:10:17.272Z,95.67
2022-07-30T01:11:07.261Z,95.57
2022-07-30T01:11:57.258Z,95.57
2022-07-30T01:12:47.244Z,95.37
2022-07-30T01:13:37.242Z,95.17
2022-07-30T01:14:27.233Z,95.47
2022-07-30T01:15:17.222Z,95.78
2022-07-30T01:16:07.269Z,95.98
2022-07-30T01:16:57.312Z,95.87
2022-07-30T01:17:47.190Z,95.87
2022-07-30T01:18:38.208Z,95.98
2022-07-30T01:19:27.171Z,96.28
2022-07-30T01:20:17.160Z,96.28
2022-07-30T01:21:07.151Z,95.98
2022-07-30T01:21:57.139Z,95.78
2022-07-30T01:22:47.131Z,95.78
2022-07-30T01:23:37.148Z,96.08
2022-07-30T01:24:27.111Z,96.38
2022-07-30T01:25:17.100Z,96.28
2022-07-30T01:26:07.093Z,96.23
2022-07-30T01:26:57.376Z,96.33
2022-07-30T01:27:47.073Z,96.23
2022-07-30T01:28:37.070Z,96.53
2022-07-30T01:29:27.059Z,96.73
2022-07-30T01:30:17.041Z,96.63
2022-07-30T01:31:07.038Z,96.73
2022-07-30T01:31:57.061Z,96.83
2022-07-30T01:32:47.021Z,97.14
2022-07-30T01:33:37.019Z,97.14
2022-07-30T01:34:27.001Z,97.19
2022-07-30T01:35:17.001Z,97.60
2022-07-30T01:36:06.979Z,97.69
2022-07-30T01:36:56.983Z,97.55
2022-07-30T01:37:46.960Z,97.24
2022-07-30T01:38:36.949Z,96.83
2022-07-30T01:39:26.941Z,96.73
2022-07-30T01:40:16.931Z,96.73
2022-07-30T01:41:06.940Z,96.43
2022-07-30T01:41:56.909Z,96.53
2022-07-30T01:42:46.918Z,96.43
2022-07-30T01:43:36.895Z,96.43
2022-07-30T01:44:26.899Z,96.43
2022-07-30T01:45:16.877Z,96.63
2022-07-30T01:46:06.926Z,96.63
2022-07-30T01:46:56.856Z,96.73
2022-07-30T01:47:46.869Z,96.88
2022-07-30T01:48:36.840Z,96.98
2022-07-30T01:49:26.830Z,97.29
2022-07-30T01:50:16.817Z,97.29
2022-07-30T01:51:06.809Z,97.49
2022-07-30T01:51:56.799Z,97.69
2022-07-30T01:52:46.798Z,98.20
2022-07-30T01:53:36.796Z,98.20
2022-07-30T01:54:26.789Z,98.20
2022-07-30T01:55:17.350Z,98.20
2022-07-30T01:56:06.758Z,97.89
2022-07-30T01:56:56.800Z,97.49
2022-07-30T01:57:46.738Z,97.29
2022-07-30T01:58:36.718Z,97.29
2022-07-30T01:59:26.729Z,97.29
2022-07-30T02:00:16.698Z,97.19
2022-07-30T02:01:06.755Z,97.08
2022-07-30T02:01:56.706Z,96.98
2022-07-30T02:02:46.719Z,96.78
2022-07-30T02:03:36.689Z,96.98
2022-07-30T02:04:26.665Z,97.19
2022-07-30T02:05:16.653Z,97.19
2022-07-30T02:06:06.639Z,97.19
2022-07-30T02:06:56.648Z,97.19
2022-07-30T02:07:46.628Z,97.29
2022-07-30T02:08:36.626Z,97.19
2022-07-30T02:09:26.609Z,97.29
2022-07-30T02:10:16.589Z,97.60
2022-07-30T02:11:06.598Z,97.94
2022-07-30T02:11:56.567Z,97.94
2022-07-30T02:12:46.568Z,98.25
2022-07-30T02:13:36.547Z,98.35
2022-07-30T02:14:26.547Z,98.35
2022-07-30T02:15:16.549Z,98.55
2022-07-30T02:16:06.580Z,98.75
2022-07-30T02:16:56.517Z,98.86
2022-07-30T02:17:46.527Z,98.66
2022-07-30T02:18:36.497Z,98.75
2022-07-30T02:19:32.823Z,98.86
2022-07-30T02:20:17.515Z,99.06
2022-07-30T02:21:07.611Z,98.96
2022-07-30T02:21:56.463Z,98.80
2022-07-30T02:22:46.455Z,98.60
2022-07-30T02:23:36.467Z,98.60
2022-07-30T02:24:26.438Z,98.39
2022-07-30T02:25:16.424Z,98.39
2022-07-30T02:26:06.417Z,98.50
2022-07-30T02:26:56.426Z,98.50
2022-07-30T02:27:46.406Z,98.70
2022-07-30T02:28:36.386Z,99.01
2022-07-30T02:29:26.376Z,99.16
2022-07-30T02:30:16.369Z,99.16
2022-07-30T02:31:17.373Z,99.26
2022-07-30T02:31:57.407Z,99.16
2022-07-30T02:32:46.356Z,99.26
2022-07-30T02:33:36.336Z,99.46
2022-07-30T02:34:27.329Z,99.16
2022-07-30T02:35:16.308Z,99.16
2022-07-30T02:36:11.187Z,99.16
2022-07-30T02:36:57.566Z,99.56
2022-07-30T02:37:46.286Z,99.46
2022-07-30T02:38:36.293Z,99.56
2022-07-30T02:39:26.272Z,99.56
2022-07-30T02:40:16.268Z,99.56
2022-07-30T02:41:06.254Z,99.46
2022-07-30T02:41:56.236Z,99.36
2022-07-30T02:42:46.234Z,99.56
2022-07-30T02:43:36.577Z,99.87
2022-07-30T02:44:26.225Z,99.66
2022-07-30T02:45:16.202Z,99.77
2022-07-30T02:46:06.195Z,99.66
2022-07-30T02:46:56.234Z,99.46
2022-07-30T02:47:46.184Z,99.46
2022-07-30T02:48:36.165Z,99.46
2022-07-30T02:49:26.175Z,99.36
2022-07-30T02:50:16.157Z,99.26
2022-07-30T02:51:06.143Z,99.05
2022-07-30T02:51:56.125Z,98.85
2022-07-30T02:52:46.124Z,98.65
2022-07-30T02:53:36.116Z,98.54
2022-07-30T02:54:26.115Z,98.65
2022-07-30T02:55:16.091Z,98.65
2022-07-30T02:56:06.083Z,98.65
2022-07-30T02:56:56.091Z,98.85
2022-07-30T02:57:46.077Z,98.85
2022-07-30T02:58:36.054Z,98.75
2022-07-30T02:59:26.046Z,98.65
2022-07-30T03:00:16.046Z,98.54
2022-07-30T03:01:06.087Z,98.34
2022-07-30T03:01:56.241Z,98.34
2022-07-30T03:02:46.014Z,98.54
2022-07-30T03:03:35.994Z,98.75
2022-07-30T03:04:25.993Z,98.75
2022-07-30T03:05:15.975Z,98.95
2022-07-30T03:06:05.973Z,98.85
2022-07-30T03:06:55.980Z,98.75
2022-07-30T03:07:45.980Z,98.65
2022-07-30T03:08:35.943Z,99.05
2022-07-30T03:09:25.942Z,99.46
2022-07-30T03:10:15.926Z,99.77
2022-07-30T03:11:05.933Z,99.66
2022-07-30T03:11:55.903Z,99.66
2022-07-30T03:12:45.906Z,99.56
2022-07-30T03:13:35.884Z,99.46
2022-07-30T03:14:25.882Z,99.30
2022-07-30T03:15:15.864Z,99.10
2022-07-30T03:16:05.905Z,98.79
2022-07-30T03:16:55.873Z,98.65
2022-07-30T03:17:45.842Z,98.65
2022-07-30T03:18:35.833Z,98.69
2022-07-30T03:19:25.830Z,98.75
2022-07-30T03:20:15.812Z,99.10
2022-07-30T03:21:05.811Z,99.26
2022-07-30T03:21:55.809Z,99.41
2022-07-30T03:22:45.790Z,99.41
2022-07-30T03:23:35.772Z,99.30
2022-07-30T03:24:25.771Z,99.30
2022-07-30T03:25:15.752Z,99.41
2022-07-30T03:26:05.760Z,99.61
2022-07-30T03:26:55.744Z,99.51
2022-07-30T03:27:45.749Z,99.61
2022-07-30T03:28:35.720Z,99.61
2022-07-30T03:29:25.746Z,99.61
2022-07-30T03:30:15.703Z,99.71
2022-07-30T03:31:05.735Z,99.71
2022-07-30T03:31:55.711Z,99.51
2022-07-30T03:32:45.683Z,99.51
2022-07-30T03:33:38.894Z,99.51
2022-07-30T03:34:25.665Z,99.41
2022-07-30T03:35:16.952Z,99.20
2022-07-30T03:36:05.641Z,99.30
2022-07-30T03:36:55.635Z,99.51
2022-07-30T03:37:45.621Z,99.51
2022-07-30T03:38:35.612Z,99.41
2022-07-30T03:39:25.620Z,99.41
2022-07-30T03:40:15.590Z,99.51
2022-07-30T03:41:05.589Z,99.51
2022-07-30T03:41:55.570Z,99.51
2022-07-30T03:42:45.589Z,99.71
2022-07-30T03:43:35.550Z,99.71
2022-07-30T03:44:25.550Z,99.81
2022-07-30T03:45:15.550Z,99.91
2022-07-30T03:46:05.565Z,99.91
2022-07-30T03:46:55.614Z,99.96
2022-07-30T03:47:45.517Z,99.96
2022-07-30T03:48:35.500Z,99.86
2022-07-30T03:49:25.586Z,99.86
2022-07-30T03:50:15.480Z,99.76
2022-07-30T03:51:05.477Z,99.76
2022-07-30T03:51:55.467Z,99.96
2022-07-30T03:52:45.469Z,99.99
2022-07-30T03:53:35.440Z,99.99
2022-07-30T03:54:25.439Z,99.96
2022-07-30T03:55:15.440Z,99.96
2022-07-30T03:56:05.437Z,99.96
2022-07-30T03:56:55.408Z,99.96
2022-07-30T03:57:45.407Z,99.96
2022-07-30T03:58:36.023Z,99.96
2022-07-30T03:59:25.391Z,99.99
2022-07-30T04:00:15.384Z,99.99
2022-07-30T04:01:05.399Z,99.99
2022-07-30T04:01:55.434Z,99.99
2022-07-30T04:02:45.367Z,99.99
2022-07-30T04:03:35.383Z,99.99
2022-07-30T04:04:25.356Z,99.99
2022-07-30T04:05:15.318Z,99.96
2022-07-30T04:06:05.316Z,99.96
2022-07-30T04:06:55.297Z,99.99
2022-07-30T04:07:45.600Z,99.99
2022-07-30T04:08:35.278Z,99.96
2022-07-30T04:09:25.275Z,99.99
2022-07-30T04:10:15.278Z,99.99
2022-07-30T04:11:05.255Z,99.99
2022-07-30T04:11:55.238Z,99.99
2022-07-30T04:12:45.238Z,99.99
2022-07-30T04:13:35.228Z,99.99
2022-07-30T04:14:25.208Z,99.91
2022-07-30T04:16:37.503Z,99.91
2022-07-30T04:16:41.593Z,99.99
2022-07-30T04:16:56.213Z,99.99
2022-07-30T04:17:45.179Z,99.99
2022-07-30T04:18:35.175Z,99.99
2022-07-30T04:19:25.157Z,99.99
2022-07-30T04:20:17.994Z,99.99
2022-07-30T04:21:05.138Z,99.99
2022-07-30T04:21:55.155Z,99.99
2022-07-30T04:22:45.126Z,99.91
2022-07-30T04:24:02.105Z,99.91
2022-07-30T04:24:26.106Z,99.99
2022-07-30T04:25:18.520Z,99.99
2022-07-30T04:26:06.086Z,99.99
2022-07-30T04:26:55.093Z,99.99
2022-07-30T04:28:02.985Z,99.99
2022-07-30T04:28:36.077Z,99.99
2022-07-30T04:29:25.112Z,99.99
2022-07-30T04:30:15.045Z,99.99
2022-07-30T04:31:05.042Z,99.99
2022-07-30T04:31:55.047Z,99.99
2022-07-30T04:32:45.014Z,99.99
2022-07-30T04:33:35.009Z,99.99
2022-07-30T04:34:24.993Z,99.99
2022-07-30T04:35:50.172Z,99.99
2022-07-30T04:36:05.976Z,99.99
2022-07-30T04:36:54.974Z,99.99
2022-07-30T04:37:44.984Z,99.99
2022-07-30T04:38:34.954Z,99.99
2022-07-30T04:39:24.936Z,99.99
2022-07-30T04:40:14.934Z,99.99
2022-07-30T04:41:04.925Z,99.99
2022-07-30T04:41:54.918Z,99.99
2022-07-30T04:42:44.904Z,99.99
2022-07-30T04:43:34.912Z,99.99
2022-07-30T04:44:24.883Z,99.99
2022-07-30T04:45:14.895Z,99.99
2022-07-30T04:46:04.916Z,99.99
2022-07-30T04:46:54.937Z,99.99
2022-07-30T04:47:44.844Z,99.99
2022-07-30T04:48:34.845Z,99.99
2022-07-30T04:49:24.902Z,99.99
2022-07-30T04:50:14.824Z,99.99
2022-07-30T04:51:04.806Z,99.99
2022-07-30T04:51:54.823Z,99.99
2022-07-30T04:52:44.794Z,99.99
2022-07-30T04:53:34.792Z,99.99
2022-07-30T04:54:24.771Z,99.99
2022-07-30T04:55:14.763Z,99.99
2022-07-30T04:56:04.758Z,99.99
2022-07-30T04:56:54.755Z,99.99
2022-07-30T04:57:44.753Z,99.99
2022-07-30T04:58:34.734Z,99.99
2022-07-30T04:59:24.727Z,99.99
2022-07-30T05:00:14.712Z,99.99
2022-07-30T05:01:04.695Z,99.99
2022-07-30T05:01:54.729Z,99.99
2022-07-30T05:02:44.674Z,99.99
2022-07-30T05:03:34.673Z,99.99
2022-07-30T05:04:24.680Z,99.99
2022-07-30T05:05:14.704Z,99.99
2022-07-30T05:06:04.644Z,99.99
2022-07-30T05:06:54.657Z,99.99
2022-07-30T05:07:44.623Z,99.99
2022-07-30T05:08:34.620Z,99.99
2022-07-30T05:09:24.605Z,99.99
2022-07-30T05:10:14.612Z,99.99
2022-07-30T05:11:04.592Z,99.99
2022-07-30T05:11:54.602Z,99.99
2022-07-30T05:12:44.569Z,99.99
2022-07-30T05:13:38.577Z,99.99
2022-07-30T05:14:24.592Z,99.99
2022-07-30T05:15:14.543Z,99.99
2022-07-30T05:16:04.565Z,99.99
2022-07-30T05:16:54.540Z,99.99
2022-07-30T05:17:44.511Z,99.99
2022-07-30T05:18:34.510Z,99.99
2022-07-30T05:19:24.492Z,99.99
2022-07-30T05:20:14.529Z,99.99
2022-07-30T05:21:04.475Z,99.99
2022-07-30T05:21:54.469Z,99.99
2022-07-30T05:22:50.813Z,99.99
2022-07-30T05:23:35.451Z,99.99
2022-07-30T05:24:24.440Z,99.99
2022-07-30T05:25:16.111Z,99.99
2022-07-30T05:26:04.431Z,99.99
2022-07-30T05:26:54.411Z,99.99
2022-07-30T05:27:44.401Z,99.99
2022-07-30T05:28:34.401Z,99.99
2022-07-30T05:29:24.382Z,99.99
2022-07-30T05:30:14.380Z,99.99
2022-07-30T05:31:08.164Z,99.96
2022-07-30T05:31:54.383Z,99.86
2022-07-30T05:32:44.342Z,99.86
2022-07-30T05:33:42.286Z,99.71
2022-07-30T05:34:25.342Z,99.61
2022-07-30T05:35:14.341Z,99.61
2022-07-30T05:36:04.311Z,99.81
2022-07-30T05:36:54.317Z,99.99
2022-07-30T05:37:44.308Z,99.99
2022-07-30T05:38:34.289Z,99.99
2022-07-30T05:39:24.272Z,99.99
2022-07-30T05:40:14.269Z,99.99
2022-07-30T05:41:04.252Z,99.99
2022-07-30T05:41:55.262Z,99.99
2022-07-30T05:42:44.243Z,99.99
2022-07-30T05:43:34.230Z,99.99
2022-07-30T05:44:24.356Z,99.99
2022-07-30T05:45:14.217Z,99.91
2022-07-30T05:46:04.238Z,99.99
2022-07-30T05:46:54.370Z,99.99
2022-07-30T05:47:44.179Z,99.99
2022-07-30T05:48:34.178Z,99.99
2022-07-30T05:49:24.253Z,99.99
2022-07-30T05:50:14.161Z,99.99
2022-07-30T05:51:04.141Z,99.99
2022-07-30T05:51:54.157Z,99.99
2022-07-30T05:52:44.128Z,99.99
2022-07-30T05:53:34.119Z,99.77
2022-07-30T05:54:24.830Z,99.66
2022-07-30T05:55:14.108Z,99.56
2022-07-30T05:56:04.101Z,99.66
2022-07-30T05:56:54.078Z,99.56
2022-07-30T05:57:44.070Z,99.36
2022-07-30T05:58:34.065Z,99.36
2022-07-30T05:59:24.048Z,99.46
2022-07-30T06:00:14.058Z,99.46
2022-07-30T06:01:04.047Z,99.46
2022-07-30T06:01:54.071Z,99.52
2022-07-30T06:02:44.018Z,99.99
2022-07-30T06:03:34.009Z,99.99
2022-07-30T06:04:24.065Z,99.99
2022-07-30T06:05:13.988Z,99.99
2022-07-30T06:06:03.975Z,99.92
2022-07-30T06:06:53.968Z,99.99
2022-07-30T06:07:43.978Z,99.99
2022-07-30T06:08:33.954Z,99.99
2022-07-30T06:09:28.486Z,99.99
2022-07-30T06:10:14.938Z,99.99
2022-07-30T06:11:03.917Z,99.99
2022-07-30T06:11:53.915Z,99.99
2022-07-30T06:12:43.897Z,99.99
2022-07-30T06:13:33.908Z,99.99
2022-07-30T06:14:23.877Z,99.99
2022-07-30T06:15:13.875Z,99.98
2022-07-30T06:16:03.915Z,99.98
2022-07-30T06:16:53.859Z,99.99
2022-07-30T06:17:43.857Z,99.99
2022-07-30T06:18:34.837Z,99.99
2022-07-30T06:19:23.826Z,99.99
2022-07-30T06:20:13.836Z,99.99
2022-07-30T06:21:03.803Z,99.93
2022-07-30T06:22:01.531Z,99.63
2022-07-30T06:22:44.796Z,99.02
2022-07-30T06:23:33.780Z,98.91
2022-07-30T06:24:23.767Z,98.91
2022-07-30T06:25:14.769Z,98.50
2022-07-30T06:26:03.748Z,98.81
2022-07-30T06:26:53.765Z,99.02
2022-07-30T06:27:43.736Z,98.97
2022-07-30T06:28:38.512Z,98.86
2022-07-30T06:29:24.707Z,98.77
2022-07-30T06:30:13.707Z,98.56
2022-07-30T06:31:03.781Z,98.26
2022-07-30T06:31:53.692Z,98.26
2022-07-30T06:32:43.688Z,98.16
2022-07-30T06:33:33.669Z,98.16
2022-07-30T06:34:23.654Z,98.11
2022-07-30T06:35:13.653Z,98.11
2022-07-30T06:36:03.636Z,98.01
2022-07-30T06:36:53.656Z,97.91
2022-07-30T06:37:58.711Z,97.80
2022-07-30T06:38:34.608Z,97.60
2022-07-30T06:39:56.458Z,97.30
2022-07-30T06:40:14.594Z,97.15
2022-07-30T06:41:04.543Z,97.05
2022-07-30T06:41:53.595Z,96.95
2022-07-30T06:42:43.575Z,96.64
2022-07-30T06:43:33.555Z,96.44
2022-07-30T06:44:23.535Z,96.34
2022-07-30T06:45:13.535Z,96.44
2022-07-30T06:46:03.689Z,96.50
2022-07-30T06:46:53.535Z,96.30
2022-07-30T06:47:43.503Z,96.09
2022-07-30T06:48:33.495Z,95.89
2022-07-30T06:49:23.554Z,95.58
2022-07-30T06:50:13.484Z,95.43
2022-07-30T06:51:03.471Z,95.34
2022-07-30T06:51:53.464Z,94.93
2022-07-30T06:52:43.465Z,94.32
2022-07-30T06:53:33.443Z,94.62
2022-07-30T06:54:24.443Z,94.58
2022-07-30T06:55:13.424Z,94.68
2022-07-30T06:56:03.413Z,94.58
2022-07-30T06:56:53.405Z,94.48
2022-07-30T06:57:43.394Z,94.38
2022-07-30T06:58:33.414Z,94.13
2022-07-30T06:59:23.376Z,94.03
2022-07-30T07:00:13.391Z,93.83
2022-07-30T07:01:03.428Z,93.42
2022-07-30T07:01:54.474Z,92.87
2022-07-30T07:02:43.344Z,92.67
2022-07-30T07:03:40.131Z,92.47
2022-07-30T07:04:24.369Z,92.32
2022-07-30T07:05:13.313Z,92.12
2022-07-30T07:06:03.304Z,91.82
2022-07-30T07:06:53.293Z,91.61
2022-07-30T07:07:56.263Z,91.27
2022-07-30T07:08:34.284Z,91.47
2022-07-30T07:09:23.264Z,91.47
2022-07-30T07:10:13.281Z,91.37
2022-07-30T07:11:03.243Z,91.02
2022-07-30T07:11:53.243Z,90.72
2022-07-30T07:12:43.244Z,90.31
2022-07-30T07:13:33.226Z,89.97
2022-07-30T07:14:23.211Z,89.26
2022-07-30T07:15:13.203Z,89.06
2022-07-30T07:16:03.196Z,88.61
2022-07-30T07:16:53.288Z,88.41
2022-07-30T07:17:43.172Z,88.10
2022-07-30T07:18:33.175Z,87.66
2022-07-30T07:20:01.368Z,87.15
2022-07-30T07:20:14.153Z,86.00
2022-07-30T07:21:03.134Z,85.86
2022-07-30T07:21:53.145Z,85.25
2022-07-30T07:22:43.134Z,84.41
2022-07-30T07:23:41.534Z,84.41
2022-07-30T07:24:24.101Z,84.41
2022-07-30T07:25:13.093Z,83.10
2022-07-30T07:26:03.082Z,83.91
2022-07-30T07:26:53.081Z,83.97
2022-07-30T07:27:43.108Z,83.76
2022-07-30T07:28:33.518Z,83.56
2022-07-30T07:29:23.052Z,83.32
2022-07-30T07:30:13.042Z,82.92
2022-07-30T07:31:03.080Z,83.62
2022-07-30T07:32:05.477Z,83.32
2022-07-30T07:32:44.052Z,82.48
2022-07-30T07:33:33.003Z,82.24
2022-07-30T07:34:23.010Z,81.84
2022-07-30T07:35:12.989Z,80.22
2022-07-30T07:36:02.975Z,79.72
2022-07-30T07:36:52.990Z,79.08
2022-07-30T07:37:42.960Z,79.58
2022-07-30T07:38:32.969Z,80.69
2022-07-30T07:39:22.944Z,79.99
2022-07-30T07:40:12.953Z,79.18
2022-07-30T07:41:02.945Z,78.64
2022-07-30T07:41:52.923Z,78.84
2022-07-30T07:42:42.912Z,79.44
2022-07-30T07:43:32.901Z,78.94
2022-07-30T07:44:22.893Z,78.40
2022-07-30T07:45:12.882Z,77.29
2022-07-30T07:46:02.986Z,76.09
2022-07-30T07:46:52.863Z,75.99
2022-07-30T07:47:42.863Z,77.09
2022-07-30T07:48:33.849Z,76.89
2022-07-30T07:49:22.904Z,75.65
2022-07-30T07:50:12.833Z,76.65
2022-07-30T07:51:02.841Z,76.35
2022-07-30T07:51:53.821Z,75.85
2022-07-30T07:52:42.813Z,74.44
2022-07-30T07:53:32.802Z,73.64
2022-07-30T07:54:23.360Z,74.51
2022-07-30T07:55:12.783Z,74.81
2022-07-30T07:56:02.845Z,74.51
2022-07-30T07:56:53.370Z,74.11
2022-07-30T07:57:42.763Z,73.97
2022-07-30T07:58:32.742Z,73.27
2022-07-30T07:59:22.742Z,72.97
2022-07-30T08:00:12.733Z,72.87
2022-07-30T08:01:02.746Z,73.77
2022-07-30T08:01:52.781Z,73.33
2022-07-30T08:02:42.982Z,73.54
2022-07-30T08:03:32.783Z,73.24
2022-07-30T08:04:22.702Z,72.43
2022-07-30T08:05:12.679Z,72.03
2022-07-30T08:06:06.295Z,72.94
2022-07-30T08:06:52.660Z,71.93
2022-07-30T08:07:42.665Z,71.39
2022-07-30T08:08:32.653Z,71.70
2022-07-30T08:09:22.643Z,71.20
2022-07-30T08:10:12.632Z,69.19
2022-07-30T08:11:02.621Z,69.29
2022-07-30T08:11:52.609Z,69.66
2022-07-30T08:12:42.602Z,69.35
2022-07-30T08:13:51.877Z,69.46
2022-07-30T08:14:23.583Z,68.96
2022-07-30T08:15:12.602Z,68.65
2022-07-30T08:16:02.565Z,67.92
2022-07-30T08:16:52.598Z,67.82
2022-07-30T08:17:42.550Z,68.32
2022-07-30T08:18:32.533Z,67.52
2022-07-30T08:19:22.522Z,70.32
2022-07-30T08:20:12.530Z,70.03
2022-07-30T08:21:02.517Z,68.32
2022-07-30T08:21:52.492Z,66.42
2022-07-30T08:22:42.510Z,66.12
2022-07-30T08:23:32.472Z,67.22
2022-07-30T08:24:22.473Z,67.12
2022-07-30T08:25:22.318Z,67.12
2022-07-30T08:26:03.461Z,67.12
2022-07-30T08:26:52.473Z,67.22
2022-07-30T08:27:42.435Z,67.72
2022-07-30T08:28:36.573Z,66.72
2022-07-30T08:29:22.413Z,68.02
2022-07-30T08:30:12.400Z,67.62
2022-07-30T08:31:02.697Z,67.62
2022-07-30T08:31:52.399Z,68.02
2022-07-30T08:32:42.372Z,67.32
2022-07-30T08:33:32.400Z,67.89
2022-07-30T08:34:25.617Z,66.09
2022-07-30T08:35:12.360Z,65.69
2022-07-30T08:36:03.993Z,65.48
2022-07-30T08:36:52.344Z,65.75
2022-07-30T08:37:42.332Z,66.75
2022-07-30T08:38:32.302Z,62.35
2022-07-30T08:39:22.293Z,62.22
2022-07-30T08:40:12.282Z,63.02
2022-07-30T08:41:02.272Z,63.62
2022-07-30T08:41:52.263Z,64.42
2022-07-30T08:42:42.272Z,65.09
2022-07-30T08:43:32.263Z,65.09
2022-07-30T08:44:22.263Z,63.79
2022-07-30T08:45:12.223Z,64.26
2022-07-30T08:46:02.222Z,63.66
2022-07-30T08:46:52.322Z,64.06
2022-07-30T08:47:42.206Z,61.87
2022-07-30T08:48:32.192Z,62.96
2022-07-30T08:49:22.201Z,64.03
2022-07-30T08:50:12.171Z,62.83
2022-07-30T08:51:02.162Z,63.13
2022-07-30T08:51:52.152Z,62.13
2022-07-30T08:52:42.172Z,61.63
2022-07-30T08:53:32.133Z,61.51
2022-07-30T08:54:22.131Z,61.60
2022-07-30T08:55:12.113Z,61.51
2022-07-30T08:56:02.111Z,61.21
2022-07-30T08:56:52.100Z,60.78
2022-07-30T08:57:42.091Z,60.88
2022-07-30T08:58:32.089Z,60.78
2022-07-30T08:59:22.072Z,59.78
2022-07-30T09:00:12.053Z,58.68
2022-07-30T09:01:02.053Z,59.68
2022-07-30T09:01:52.033Z,58.38
2022-07-30T09:02:42.033Z,57.15
2022-07-30T09:03:32.020Z,55.39
2022-07-30T09:04:22.034Z,55.88
2022-07-30T09:05:12.003Z,55.19
2022-07-30T09:06:01.993Z,55.76
2022-07-30T09:06:51.983Z,56.96
2022-07-30T09:07:41.993Z,55.56
2022-07-30T09:08:31.961Z,55.96
2022-07-30T09:09:21.953Z,56.66
2022-07-30T09:10:11.941Z,57.23
2022-07-30T09:11:01.942Z,55.43
2022-07-30T09:11:51.923Z,54.34
2022-07-30T09:12:41.915Z,53.61
2022-07-30T09:13:31.926Z,53.61
2022-07-30T09:14:21.893Z,53.22
2022-07-30T09:15:12.880Z,54.11
2022-07-30T09:16:01.875Z,54.81
2022-07-30T09:16:51.853Z,54.91
2022-07-30T09:17:41.853Z,55.21
2022-07-30T09:18:31.843Z,53.14
2022-07-30T09:19:21.861Z,54.76
2022-07-30T09:20:11.821Z,54.06
2022-07-30T09:21:01.834Z,53.56
2022-07-30T09:21:51.812Z,53.66
2022-07-30T09:22:41.795Z,53.64
2022-07-30T09:23:31.774Z,54.24
2022-07-30T09:24:21.783Z,53.84
2022-07-30T09:25:11.759Z,54.74
2022-07-30T09:26:01.752Z,54.71
2022-07-30T09:26:51.733Z,54.91
2022-07-30T09:27:41.731Z,55.21
2022-07-30T09:28:31.714Z,57.50
2022-07-30T09:29:21.713Z,56.01
2022-07-30T09:30:11.711Z,53.52
2022-07-30T09:31:01.692Z,54.01
2022-07-30T09:31:51.674Z,55.11
2022-07-30T09:32:41.685Z,54.31
2022-07-30T09:33:31.653Z,53.22
2022-07-30T09:34:21.653Z,54.61
2022-07-30T09:35:11.663Z,53.22
2022-07-30T09:36:01.623Z,53.69
2022-07-30T09:36:51.614Z,52.59
2022-07-30T09:37:41.623Z,52.00
2022-07-30T09:38:31.594Z,52.29
2022-07-30T09:39:21.604Z,51.10
2022-07-30T09:40:11.573Z,52.49
2022-07-30T09:41:08.089Z,52.69
2022-07-30T09:41:52.557Z,51.32
2022-07-30T09:42:41.544Z,52.62
2022-07-30T09:43:31.539Z,53.52
2022-07-30T09:44:21.545Z,53.41
2022-07-30T09:45:11.514Z,52.32
2022-07-30T09:46:01.577Z,51.52
2022-07-30T09:46:51.497Z,51.52
2022-07-30T09:47:41.484Z,50.23
2022-07-30T09:48:31.465Z,50.92
2022-07-30T09:49:21.614Z,50.32
2022-07-30T09:50:11.445Z,50.73
2022-07-30T09:51:01.449Z,51.82
2022-07-30T09:52:06.737Z,54.49
2022-07-30T09:52:43.990Z,53.69
2022-07-30T09:53:31.405Z,52.00
2022-07-30T09:54:21.423Z,51.27
2022-07-30T09:55:11.385Z,50.98
2022-07-30T09:56:01.384Z,50.57
2022-07-30T09:56:53.793Z,50.98
2022-07-30T09:57:41.363Z,52.17
2022-07-30T09:58:32.352Z,52.47
2022-07-30T09:59:21.343Z,54.46
2022-07-30T10:00:11.354Z,50.87
2022-07-30T10:01:01.331Z,50.38
2022-07-30T10:01:56.195Z,50.35
2022-07-30T10:02:42.303Z,49.55
2022-07-30T10:03:33.694Z,49.55
2022-07-30T10:04:22.284Z,49.68
2022-07-30T10:05:14.244Z,50.98
2022-07-30T10:06:01.263Z,52.47
2022-07-30T10:06:51.243Z,52.47
2022-07-30T10:07:42.737Z,49.98
2022-07-30T10:08:31.243Z,52.17
2022-07-30T10:09:21.215Z,51.25
2022-07-30T10:10:11.204Z,51.65
2022-07-30T10:11:04.945Z,49.76
2022-07-30T10:11:52.206Z,50.13
2022-07-30T10:12:41.194Z,50.52
2022-07-30T10:13:34.792Z,49.04
2022-07-30T10:14:30.622Z,48.94
2022-07-30T10:15:13.629Z,47.74
2022-07-30T10:16:01.135Z,48.83
2022-07-30T10:16:51.123Z,49.63
2022-07-30T10:17:41.123Z,49.53
2022-07-30T10:18:31.103Z,49.21
2022-07-30T10:19:23.407Z,49.80
2022-07-30T10:20:12.364Z,48.14
2022-07-30T10:21:01.095Z,48.64
2022-07-30T10:21:51.069Z,48.91
2022-07-30T10:22:41.074Z,49.63
2022-07-30T10:23:32.664Z,50.13
2022-07-30T10:24:27.672Z,48.14
2022-07-30T10:25:16.303Z,46.45
2022-07-30T10:26:01.017Z,47.44
2022-07-30T10:26:51.003Z,48.74
2022-07-30T10:27:40.996Z,47.64
2022-07-30T10:28:34.631Z,46.92
2022-07-30T10:29:21.976Z,47.32
2022-07-30T10:30:13.796Z,49.80
2022-07-30T10:31:00.961Z,48.39
2022-07-30T10:31:54.576Z,47.00
2022-07-30T10:32:42.419Z,47.40
2022-07-30T10:33:36.356Z,47.60
2022-07-30T10:34:23.796Z,47.50
2022-07-30T10:35:10.902Z,46.80
2022-07-30T10:36:02.641Z,46.90
2022-07-30T10:36:50.896Z,46.90
2022-07-30T10:37:40.910Z,45.63
2022-07-30T10:38:30.886Z,45.93
2022-07-30T10:39:20.857Z,46.03
2022-07-30T10:40:10.843Z,45.83
2022-07-30T10:41:00.838Z,45.33
2022-07-30T10:41:50.840Z,45.65
2022-07-30T10:42:40.825Z,46.35
2022-07-30T10:43:31.828Z,47.14